Friendsville, Illinois
Current Conditions -  °F | °C
As of 6:15 PM on Wednesday 26 Nov 2014 (Local Time) from KAJG Reporting Station
Light Rain Light Rain  
Wind Chill: 33°   Ceiling: 2000
Heat Index: 37°   Visibility: 10mi
Dew Point: 30°   Wind: 6mph
Humidity: 75%   Direction: 20°NNE
Pressure: 30.06"   Gusts: NA
Location:  38.4145°N, 87.8638°W
Report Text: KAJG 270015Z AUTO 02005KT 10SM -RA BKN020 BKN025 OVC031 03/M01 A3006 RMK AO2
Loading
Personal Weather Stations






























Interactive Weather Map New forecast layout! Learn more

10-Day Weather Forecast

Advertisements
Track Severe Weather on mobile